Ambler Airport Ambler US
ICAO: PAFM
IATA:
Category: Medium
Scheduled Services:

Elevation: 334 ft
TransAlt. 18000 ft.

Airport Communications:
AWOS 3:132.1
ANCHORAGE CNTR:119.2
CTAF:122.7
KOTEZBUE RDO:122
TWEB:40.3

PAFM Zoom In..

Runways:

(A) RW 09 length 2400 ft width 60 ft
---- / hdg 91

(B) RW 18 length 3000 ft width 60 ft
---- / hdg 181

(C) RW 27 length 2400 ft width 60 ft
---- / hdg 271

(D) RW 36 length 3000 ft width 60 ft
---- / hdg 1

Location; PAFM
Day. 04 / Time. 01.00 Zulu
* Altimeter: 29.81
* Temperature: -12° c. -10.4°f.
* Wind from: 020° Speed 06 kn.
Dewpoint: -14° c.
Visibility: 1 m.
Clouds: Broken 1400 ft.
Clouds: Overcast 1900 ft.
Conditions: Light Snow.Conditions: Mist.

PAFM 040100Z AUTO 02006KT 1 1/2SM -SN BR BKN014 OVC019 M12/M14 A2981 RMK AO2 VIS 1V3 P0000 FZRANO

Going to: --> -->


Wind From 020°
Speed 06 kn.

 
 
jpsmedia worldairports.se 2020   terms of use